Terminal Aerodrome Forecast
Issued by NWS Lake Charles, LA

Home | Current Version | Previous Version | Text Only | Print | Product List | Glossary On
Versions: 1 2 3 4 5 6 7 8 9 10 11 12 13 14 15 16
645
FTUS44 KLCH 301139
TAFLFT
TAF
KLFT 301139Z 3012/0112 16009KT P6SM VCSH BKN015
     FM301400 17012G18KT P6SM VCTS SCT007 BKN015CB
      TEMPO 3014/3017 4SM -TSRA
     FM301700 18010G18KT 4SM TSRA BKN015CB OVC025
      TEMPO 3017/3019 VRB15G30KT 1SM +TSRA OVC007CB
     FM301900 20010G18KT P6SM VCTS SCT015CB OVC025
     FM010200 19005KT 4SM BR VCSH BKN015 OVC025=

USA.gov is the U.S. government's official web portal to all federal, state and local government web resources and services.